sensor_id;sensor_type;location;lat;lon;timestamp;pressure;altitude;pressure_sealevel;temperature;humidity
49030;BME280;43337;52.070;4.508;2023-02-23T00:00:10;101471.94;;;7.31;100.00
49030;BME280;43337;52.070;4.508;2023-02-23T00:02:46;101479.75;;;7.33;100.00
49030;BME280;43337;52.070;4.508;2023-02-23T00:05:11;101483.22;;;7.33;100.00
49030;BME280;43337;52.070;4.508;2023-02-23T00:07:37;101483.22;;;7.35;100.00
49030;BME280;43337;52.070;4.508;2023-02-23T00:10:02;101482.34;;;7.34;100.00
49030;BME280;43337;52.070;4.508;2023-02-23T00:12:28;101482.38;;;7.33;100.00
49030;BME280;43337;52.070;4.508;2023-02-23T00:14:53;101477.06;;;7.36;100.00
49030;BME280;43337;52.070;4.508;2023-02-23T00:17:19;101487.50;;;7.38;100.00
49030;BME280;43337;52.070;4.508;2023-02-23T00:19:46;101484.97;;;7.34;100.00
49030;BME280;43337;52.070;4.508;2023-02-23T00:22:11;101487.59;;;7.34;100.00
49030;BME280;43337;52.070;4.508;2023-02-23T00:24:37;101494.56;;;7.36;100.00
49030;BME280;43337;52.070;4.508;2023-02-23T00:27:02;101479.75;;;7.33;100.00
49030;BME280;43337;52.070;4.508;2023-02-23T00:29:30;101482.41;;;7.31;100.00
49030;BME280;43337;52.070;4.508;2023-02-23T00:32:03;101485.88;;;7.32;100.00
49030;BME280;43337;52.070;4.508;2023-02-23T00:34:28;101448.66;;;7.15;100.00
49030;BME280;43337;52.070;4.508;2023-02-23T00:36:54;101469.38;;;7.28;100.00
49030;BME280;43337;52.070;4.508;2023-02-23T00:39:20;101472.88;;;7.27;100.00
49030;BME280;43337;52.070;4.508;2023-02-23T00:41:48;101488.47;;;7.33;100.00
49030;BME280;43337;52.070;4.508;2023-02-23T00:44:14;101473.69;;;7.31;100.00
49030;BME280;43337;52.070;4.508;2023-02-23T00:46:40;101486.69;;;7.36;100.00
49030;BME280;43337;52.070;4.508;2023-02-23T00:49:08;101481.56;;;7.29;100.00
49030;BME280;43337;52.070;4.508;2023-02-23T00:51:35;101478.03;;;7.32;100.00
49030;BME280;43337;52.070;4.508;2023-02-23T00:54:01;101478.94;;;7.31;100.00
49030;BME280;43337;52.070;4.508;2023-02-23T00:56:27;101477.13;;;7.33;100.00
49030;BME280;43337;52.070;4.508;2023-02-23T00:58:53;101473.69;;;7.31;100.00
49030;BME280;43337;52.070;4.508;2023-02-23T01:01:19;101484.06;;;7.36;100.00
49030;BME280;43337;52.070;4.508;2023-02-23T01:03:45;101481.56;;;7.31;100.00
49030;BME280;43337;52.070;4.508;2023-02-23T01:06:12;101479.81;;;7.30;100.00
49030;BME280;43337;52.070;4.508;2023-02-23T01:08:44;101479.88;;;7.27;100.00
49030;BME280;43337;52.070;4.508;2023-02-23T01:11:15;101482.41;;;7.31;100.00
49030;BME280;43337;52.070;4.508;2023-02-23T01:13:42;101485.03;;;7.31;100.00
49030;BME280;43337;52.070;4.508;2023-02-23T01:16:10;101478.03;;;7.32;100.00
49030;BME280;43337;52.070;4.508;2023-02-23T01:18:37;101490.22;;;7.34;100.00
49030;BME280;43337;52.070;4.508;2023-02-23T01:21:04;101479.81;;;7.30;100.00
49030;BME280;43337;52.070;4.508;2023-02-23T01:23:30;101485.03;;;7.31;100.00
49030;BME280;43337;52.070;4.508;2023-02-23T01:25:56;101486.78;;;7.31;100.00
49030;BME280;43337;52.070;4.508;2023-02-23T01:28:22;101485.03;;;7.30;100.00
49030;BME280;43337;52.070;4.508;2023-02-23T01:30:48;101479.84;;;7.28;100.00
49030;BME280;43337;52.070;4.508;2023-02-23T01:33:13;101486.78;;;7.31;100.00
49030;BME280;43337;52.070;4.508;2023-02-23T01:35:39;101482.41;;;7.30;100.00
49030;BME280;43337;52.070;4.508;2023-02-23T01:38:04;101477.31;;;7.22;100.00
49030;BME280;43337;52.070;4.508;2023-02-23T01:40:31;101488.47;;;7.33;100.00
49030;BME280;43337;52.070;4.508;2023-02-23T01:43:15;101472.97;;;7.23;100.00
49030;BME280;43337;52.070;4.508;2023-02-23T01:45:44;101485.00;;;7.33;100.00
49030;BME280;43337;52.070;4.508;2023-02-23T01:48:13;101459.09;;;7.18;100.00
49030;BME280;43337;52.070;4.508;2023-02-23T01:51:03;101483.31;;;7.30;100.00
49030;BME280;43337;52.070;4.508;2023-02-23T01:53:35;101480.75;;;7.26;100.00
49030;BME280;43337;52.070;4.508;2023-02-23T01:56:21;101486.84;;;7.26;100.00
49030;BME280;43337;52.070;4.508;2023-02-23T01:58:50;101486.06;;;7.23;100.00
49030;BME280;43337;52.070;4.508;2023-02-23T02:01:18;101495.59;;;7.25;100.00
49030;BME280;43337;52.070;4.508;2023-02-23T02:04:00;101486.94;;;7.22;100.00
49030;BME280;43337;52.070;4.508;2023-02-23T02:06:27;101497.31;;;7.26;100.00
49030;BME280;43337;52.070;4.508;2023-02-23T02:08:57;101500.03;;;7.23;100.00
49030;BME280;43337;52.070;4.508;2023-02-23T02:11:24;101502.59;;;7.25;100.00
49030;BME280;43337;52.070;4.508;2023-02-23T02:14:08;101497.41;;;7.22;100.00
49030;BME280;43337;52.070;4.508;2023-02-23T02:33:17;101499.31;;;7.14;100.00
49030;BME280;43337;52.070;4.508;2023-02-23T02:36:13;101501.03;;;7.16;100.00
49030;BME280;43337;52.070;4.508;2023-02-23T02:39:02;101489.78;;;7.09;100.00
49030;BME280;43337;52.070;4.508;2023-02-23T02:41:58;101481.97;;;7.06;100.00
49030;BME280;43337;52.070;4.508;2023-02-23T02:44:34;101483.72;;;7.06;100.00
49030;BME280;43337;52.070;4.508;2023-02-23T02:47:07;101482.84;;;7.07;100.00
49030;BME280;43337;52.070;4.508;2023-02-23T02:49:45;101483.72;;;7.07;100.00
49030;BME280;43337;52.070;4.508;2023-02-23T02:52:19;101490.63;;;7.10;100.00
49030;BME280;43337;52.070;4.508;2023-02-23T02:54:52;101491.50;;;7.10;100.00
49030;BME280;43337;52.070;4.508;2023-02-23T02:57:24;101487.16;;;7.09;100.00
49030;BME280;43337;52.070;4.508;2023-02-23T02:59:50;101483.66;;;7.10;100.00
49030;BME280;43337;52.070;4.508;2023-02-23T03:02:36;101483.66;;;7.10;100.00
49030;BME280;43337;52.070;4.508;2023-02-23T03:05:24;101487.19;;;7.08;100.00
49030;BME280;43337;52.070;4.508;2023-02-23T03:08:45;101483.69;;;7.09;100.00
49030;BME280;43337;52.070;4.508;2023-02-23T03:11:24;101479.44;;;7.03;100.00
49030;BME280;43337;52.070;4.508;2023-02-23T03:14:43;101494.25;;;7.04;100.00
49030;BME280;43337;52.070;4.508;2023-02-23T03:17:45;101486.44;;;7.01;100.00
49030;BME280;43337;52.070;4.508;2023-02-23T03:26:30;101504.81;;;7.00;100.00
49030;BME280;43337;52.070;4.508;2023-02-23T03:29:42;101494.34;;;7.00;100.00
49030;BME280;43337;52.070;4.508;2023-02-23T03:35:38;101495.19;;;6.99;100.00
49030;BME280;43337;52.070;4.508;2023-02-23T03:38:37;101489.09;;;7.00;100.00
49030;BME280;43337;52.070;4.508;2023-02-23T03:41:25;101505.63;;;7.02;100.00
49030;BME280;43337;52.070;4.508;2023-02-23T03:44:20;101502.97;;;7.05;100.00
49030;BME280;43337;52.070;4.508;2023-02-23T03:47:07;101498.66;;;7.01;100.00
49030;BME280;43337;52.070;4.508;2023-02-23T03:49:53;101504.72;;;7.03;100.00
49030;BME280;43337;52.070;4.508;2023-02-23T03:52:48;101516.91;;;7.05;100.00
49030;BME280;43337;52.070;4.508;2023-02-23T03:55:37;101522.19;;;7.04;100.00
49030;BME280;43337;52.070;4.508;2023-02-23T03:58:28;101521.25;;;7.06;100.00
49030;BME280;43337;52.070;4.508;2023-02-23T04:01:13;101520.38;;;7.07;100.00
49030;BME280;43337;52.070;4.508;2023-02-23T04:04:00;101518.72;;;7.03;100.00
49030;BME280;43337;52.070;4.508;2023-02-23T04:06:46;101523.88;;;7.06;100.00
49030;BME280;43337;52.070;4.508;2023-02-23T04:09:32;101526.47;;;7.06;100.00
49030;BME280;43337;52.070;4.508;2023-02-23T04:12:37;101518.66;;;7.05;100.00
49030;BME280;43337;52.070;4.508;2023-02-23T04:15:33;101523.88;;;7.06;100.00
49030;BME280;43337;52.070;4.508;2023-02-23T04:18:03;101520.47;;;7.01;100.00
49030;BME280;43337;52.070;4.508;2023-02-23T04:20:29;101518.72;;;7.03;100.00
49030;BME280;43337;52.070;4.508;2023-02-23T04:22:55;101525.63;;;7.06;100.00
49030;BME280;43337;52.070;4.508;2023-02-23T04:25:20;101530.91;;;7.03;100.00
49030;BME280;43337;52.070;4.508;2023-02-23T04:27:49;101526.56;;;7.03;100.00
49030;BME280;43337;52.070;4.508;2023-02-23T04:30:15;101540.44;;;7.07;100.00
49030;BME280;43337;52.070;4.508;2023-02-23T04:32:41;101535.19;;;7.07;100.00
49030;BME280;43337;52.070;4.508;2023-02-23T04:35:08;101526.56;;;7.02;100.00
49030;BME280;43337;52.070;4.508;2023-02-23T04:37:33;101524.84;;;7.01;100.00
49030;BME280;43337;52.070;4.508;2023-02-23T04:39:59;101537.91;;;7.04;100.00
49030;BME280;43337;52.070;4.508;2023-02-23T04:42:24;101515.38;;;6.94;100.00
49030;BME280;43337;52.070;4.508;2023-02-23T04:44:50;101541.31;;;7.07;100.00
49030;BME280;43337;52.070;4.508;2023-02-23T04:47:15;101508.50;;;6.88;100.00
49030;BME280;43337;52.070;4.508;2023-02-23T04:49:41;101522.34;;;6.93;100.00
49030;BME280;43337;52.070;4.508;2023-02-23T04:52:07;101534.47;;;7.00;100.00
49030;BME280;43337;52.070;4.508;2023-02-23T04:54:36;101544.91;;;7.02;100.00
49030;BME280;43337;52.070;4.508;2023-02-23T04:57:02;101544.06;;;6.98;100.00
49030;BME280;43337;52.070;4.508;2023-02-23T04:59:27;101544.13;;;6.95;100.00
49030;BME280;43337;52.070;4.508;2023-02-23T05:01:53;101555.47;;;6.96;100.00
49030;BME280;43337;52.070;4.508;2023-02-23T05:04:18;101551.16;;;6.93;100.00
49030;BME280;43337;52.070;4.508;2023-02-23T05:06:43;101549.47;;;6.88;100.00
49030;BME280;43337;52.070;4.508;2023-02-23T05:09:09;101555.53;;;6.93;100.00
49030;BME280;43337;52.070;4.508;2023-02-23T05:11:34;101549.50;;;6.86;100.00
49030;BME280;43337;52.070;4.508;2023-02-23T05:14:00;101562.56;;;6.89;100.00
49030;BME280;43337;52.070;4.508;2023-02-23T05:16:25;101558.22;;;6.87;100.00
49030;BME280;43337;52.070;4.508;2023-02-23T05:18:50;101559.97;;;6.86;100.00
49030;BME280;43337;52.070;4.508;2023-02-23T05:21:16;101567.88;;;6.84;100.00
49030;BME280;43337;52.070;4.508;2023-02-23T05:23:41;101556.59;;;6.79;100.00
49030;BME280;43337;52.070;4.508;2023-02-23T05:26:09;101573.97;;;6.83;100.00
49030;BME280;43337;52.070;4.508;2023-02-23T05:28:36;101574.88;;;6.82;100.00
49030;BME280;43337;52.070;4.508;2023-02-23T05:31:03;101562.75;;;6.75;100.00
49030;BME280;43337;52.070;4.508;2023-02-23T05:33:29;101568.00;;;6.77;100.00
49030;BME280;43337;52.070;4.508;2023-02-23T05:35:55;101578.41;;;6.78;100.00
49030;BME280;43337;52.070;4.508;2023-02-23T05:38:21;101581.91;;;6.79;100.00
49030;BME280;43337;52.070;4.508;2023-02-23T05:40:46;101573.16;;;6.80;100.00
49030;BME280;43337;52.070;4.508;2023-02-23T05:43:12;101562.88;;;6.68;100.00
49030;BME280;43337;52.070;4.508;2023-02-23T05:45:41;101576.69;;;6.76;100.00
49030;BME280;43337;52.070;4.508;2023-02-23T05:48:08;101579.31;;;6.77;100.00
49030;BME280;43337;52.070;4.508;2023-02-23T05:50:34;101576.78;;;6.73;100.00
49030;BME280;43337;52.070;4.508;2023-02-23T05:52:59;101586.34;;;6.74;100.00
49030;BME280;43337;52.070;4.508;2023-02-23T05:55:24;101580.25;;;6.72;100.00
49030;BME280;43337;52.070;4.508;2023-02-23T05:57:50;101590.66;;;6.76;100.00
49030;BME280;43337;52.070;4.508;2023-02-23T06:00:16;101582.00;;;6.73;100.00
49030;BME280;43337;52.070;4.508;2023-02-23T06:02:43;101575.06;;;6.69;100.00
49030;BME280;43337;52.070;4.508;2023-02-23T06:05:10;101582.78;;;6.76;100.00
49030;BME280;43337;52.070;4.508;2023-02-23T06:07:36;101581.06;;;6.75;100.00
49030;BME280;43337;52.070;4.508;2023-02-23T06:10:02;101585.41;;;6.76;100.00
49030;BME280;43337;52.070;4.508;2023-02-23T06:12:27;101599.34;;;6.78;100.00
49030;BME280;43337;52.070;4.508;2023-02-23T06:14:53;101587.19;;;6.74;100.00
49030;BME280;43337;52.070;4.508;2023-02-23T06:17:18;101585.47;;;6.73;100.00
49030;BME280;43337;52.070;4.508;2023-02-23T06:19:43;101601.13;;;6.76;100.00
49030;BME280;43337;52.070;4.508;2023-02-23T06:22:10;101604.66;;;6.74;100.00
49030;BME280;43337;52.070;4.508;2023-02-23T06:24:36;101608.19;;;6.71;100.00
49030;BME280;43337;52.070;4.508;2023-02-23T06:27:01;101587.47;;;6.57;100.00
49030;BME280;43337;52.070;4.508;2023-02-23T06:29:26;101588.28;;;6.59;100.00
49030;BME280;43337;52.070;4.508;2023-02-23T06:31:52;101603.03;;;6.65;100.00
49030;BME280;43337;52.070;4.508;2023-02-23T06:34:17;101597.84;;;6.62;100.00
49030;BME280;43337;52.070;4.508;2023-02-23T06:36:43;101603.06;;;6.64;100.00
49030;BME280;43337;52.070;4.508;2023-02-23T06:39:10;101585.78;;;6.53;100.00
49030;BME280;43337;52.070;4.508;2023-02-23T06:41:36;101606.63;;;6.58;100.00
49030;BME280;43337;52.070;4.508;2023-02-23T06:44:02;101594.56;;;6.48;100.00
49030;BME280;43337;52.070;4.508;2023-02-23T06:46:27;101619.72;;;6.56;100.00
49030;BME280;43337;52.070;4.508;2023-02-23T06:48:54;101607.59;;;6.49;100.00
49030;BME280;43337;52.070;4.508;2023-02-23T06:51:19;101619.78;;;6.52;100.00
49030;BME280;43337;52.070;4.508;2023-02-23T06:53:45;101626.78;;;6.51;100.00
49030;BME280;43337;52.070;4.508;2023-02-23T06:56:10;101632.84;;;6.52;100.00
49030;BME280;43337;52.070;4.508;2023-02-23T06:58:38;101632.03;;;6.50;100.00
49030;BME280;43337;52.070;4.508;2023-02-23T07:01:04;101610.38;;;6.37;100.00
49030;BME280;43337;52.070;4.508;2023-02-23T07:03:29;101631.16;;;6.48;100.00
49030;BME280;43337;52.070;4.508;2023-02-23T07:05:55;101634.75;;;6.41;100.00
49030;BME280;43337;52.070;4.508;2023-02-23T07:08:20;101650.38;;;6.47;100.00
49030;BME280;43337;52.070;4.508;2023-02-23T07:10:45;101658.22;;;6.45;100.00
49030;BME280;43337;52.070;4.508;2023-02-23T07:13:11;101658.31;;;6.39;100.00
49030;BME280;43337;52.070;4.508;2023-02-23T07:15:37;101668.75;;;6.41;100.00
49030;BME280;43337;52.070;4.508;2023-02-23T07:18:03;101678.28;;;6.45;100.00
49030;BME280;43337;52.070;4.508;2023-02-23T07:20:29;101674.00;;;6.38;100.00
49030;BME280;43337;52.070;4.508;2023-02-23T07:22:55;101649.75;;;6.25;100.00
49030;BME280;43337;52.070;4.508;2023-02-23T07:25:21;101670.66;;;6.28;100.00
49030;BME280;43337;52.070;4.508;2023-02-23T07:27:46;101685.34;;;6.40;100.00
49030;BME280;43337;52.070;4.508;2023-02-23T07:30:12;101693.16;;;6.41;100.00
49030;BME280;43337;52.070;4.508;2023-02-23T07:32:39;101692.31;;;6.39;100.00
49030;BME280;43337;52.070;4.508;2023-02-23T07:35:05;101704.53;;;6.37;100.00
49030;BME280;43337;52.070;4.508;2023-02-23T07:37:31;101705.41;;;6.39;100.00
49030;BME280;43337;52.070;4.508;2023-02-23T07:39:56;101692.34;;;6.36;100.00
49030;BME280;43337;52.070;4.508;2023-02-23T07:42:22;101699.31;;;6.35;100.00
49030;BME280;43337;52.070;4.508;2023-02-23T07:44:47;101717.56;;;6.40;100.00
49030;BME280;43337;52.070;4.508;2023-02-23T07:47:13;101698.47;;;6.33;100.00
49030;BME280;43337;52.070;4.508;2023-02-23T07:49:38;101711.50;;;6.38;100.00
49030;BME280;43337;52.070;4.508;2023-02-23T07:52:04;101709.75;;;6.37;100.00
49030;BME280;43337;52.070;4.508;2023-02-23T07:54:29;101712.31;;;6.42;100.00
49030;BME280;43337;52.070;4.508;2023-02-23T07:56:54;101715.81;;;6.42;100.00
49030;BME280;43337;52.070;4.508;2023-02-23T07:59:20;101707.16;;;6.34;100.00
49030;BME280;43337;52.070;4.508;2023-02-23T08:01:45;101731.53;;;6.41;100.00
49030;BME280;43337;52.070;4.508;2023-02-23T08:04:11;101731.53;;;6.41;100.00
49030;BME280;43337;52.070;4.508;2023-02-23T08:06:36;101729.75;;;6.41;100.00
49030;BME280;43337;52.070;4.508;2023-02-23T08:09:03;101729.75;;;6.41;100.00
49030;BME280;43337;52.070;4.508;2023-02-23T08:11:29;101728.97;;;6.36;100.00
49030;BME280;43337;52.070;4.508;2023-02-23T08:13:55;101735.91;;;6.39;100.00
49030;BME280;43337;52.070;4.508;2023-02-23T08:16:31;101745.50;;;6.40;100.00
49030;BME280;43337;52.070;4.508;2023-02-23T08:18:57;101753.31;;;6.43;100.00
49030;BME280;43337;52.070;4.508;2023-02-23T08:21:23;101742.03;;;6.36;100.00
49030;BME280;43337;52.070;4.508;2023-02-23T08:23:49;101734.25;;;6.30;100.00
49030;BME280;43337;52.070;4.508;2023-02-23T08:26:14;101759.38;;;6.46;100.00
49030;BME280;43337;52.070;4.508;2023-02-23T08:28:41;101756.72;;;6.48;100.00
49030;BME280;43337;52.070;4.508;2023-02-23T08:31:10;101749.75;;;6.48;100.00
49030;BME280;43337;52.070;4.508;2023-02-23T08:33:36;101750.63;;;6.47;100.00
49030;BME280;43337;52.070;4.508;2023-02-23T08:36:04;101759.31;;;6.49;100.00
49030;BME280;43337;52.070;4.508;2023-02-23T08:38:30;101750.63;;;6.50;100.00
49030;BME280;43337;52.070;4.508;2023-02-23T08:40:59;101751.53;;;6.46;100.00
49030;BME280;43337;52.070;4.508;2023-02-23T08:43:26;101767.09;;;6.57;100.00
49030;BME280;43337;52.070;4.508;2023-02-23T08:45:51;101741.88;;;6.51;100.00
49030;BME280;43337;52.070;4.508;2023-02-23T08:48:16;101768.72;;;6.67;100.00
49030;BME280;43337;52.070;4.508;2023-02-23T08:50:42;101765.13;;;6.77;100.00
49030;BME280;43337;52.070;4.508;2023-02-23T08:53:07;101774.59;;;6.89;100.00
49030;BME280;43337;52.070;4.508;2023-02-23T08:55:33;101770.22;;;6.90;100.00
49030;BME280;43337;52.070;4.508;2023-02-23T08:57:59;101783.94;;;7.08;100.00
49030;BME280;43337;52.070;4.508;2023-02-23T09:00:25;101778.56;;;7.19;100.00
49030;BME280;43337;52.070;4.508;2023-02-23T09:02:50;101773.25;;;7.24;100.00
49030;BME280;43337;52.070;4.508;2023-02-23T09:05:16;101773.94;;;7.37;100.00
49030;BME280;43337;52.070;4.508;2023-02-23T09:07:43;101784.31;;;7.46;100.00
49030;BME280;43337;52.070;4.508;2023-02-23T09:10:17;101784.28;;;7.47;100.00
49030;BME280;43337;52.070;4.508;2023-02-23T09:12:44;101785.06;;;7.54;100.00
49030;BME280;43337;52.070;4.508;2023-02-23T09:15:11;101791.16;;;7.54;100.00
49030;BME280;43337;52.070;4.508;2023-02-23T09:17:37;101791.97;;;7.61;100.00
49030;BME280;43337;52.070;4.508;2023-02-23T09:20:04;101811.09;;;7.65;100.00
49030;BME280;43337;52.070;4.508;2023-02-23T09:22:30;101806.72;;;7.67;100.00
49030;BME280;43337;52.070;4.508;2023-02-23T09:24:56;101804.16;;;7.62;100.00
49030;BME280;43337;52.070;4.508;2023-02-23T09:27:21;101802.38;;;7.64;100.00
49030;BME280;43337;52.070;4.508;2023-02-23T09:29:47;101808.44;;;7.68;100.00
49030;BME280;43337;52.070;4.508;2023-02-23T09:32:12;101811.09;;;7.66;100.00
49030;BME280;43337;52.070;4.508;2023-02-23T09:34:37;101807.50;;;7.73;100.00
49030;BME280;43337;52.070;4.508;2023-02-23T09:37:03;101811.78;;;7.77;100.00
49030;BME280;43337;52.070;4.508;2023-02-23T09:39:29;101786.63;;;7.64;100.00
49030;BME280;43337;52.070;4.508;2023-02-23T09:49:58;101791.66;;;7.79;100.00
49030;BME280;43337;52.070;4.508;2023-02-23T09:52:36;101802.88;;;7.89;100.00
49030;BME280;43337;52.070;4.508;2023-02-23T09:55:03;101795.09;;;7.85;100.00
49030;BME280;43337;52.070;4.508;2023-02-23T09:57:38;101807.25;;;7.87;100.00
49030;BME280;43337;52.070;4.508;2023-02-23T10:00:25;101814.25;;;7.87;100.00
49030;BME280;43337;52.070;4.508;2023-02-23T10:03:02;101815.19;;;7.84;100.00
49030;BME280;43337;52.070;4.508;2023-02-23T10:05:31;101818.69;;;7.83;100.00
49030;BME280;43337;52.070;4.508;2023-02-23T10:08:07;101817.81;;;7.82;100.00
49030;BME280;43337;52.070;4.508;2023-02-23T10:10:45;101810.03;;;7.78;100.00
49030;BME280;43337;52.070;4.508;2023-02-23T10:13:26;101818.72;;;7.81;100.00
49030;BME280;43337;52.070;4.508;2023-02-23T10:16:09;101819.63;;;7.79;100.00
49030;BME280;43337;52.070;4.508;2023-02-23T10:21:38;101824.03;;;7.77;100.00
49030;BME280;43337;52.070;4.508;2023-02-23T10:24:17;101834.47;;;7.80;100.00
49030;BME280;43337;52.070;4.508;2023-02-23T10:26:52;101825.81;;;7.75;100.00
49030;BME280;43337;52.070;4.508;2023-02-23T10:29:29;101835.38;;;7.76;100.00
49030;BME280;43337;52.070;4.508;2023-02-23T10:32:02;101846.78;;;7.75;100.00
49030;BME280;43337;52.070;4.508;2023-02-23T10:34:30;101836.41;;;7.67;100.00
49030;BME280;43337;52.070;4.508;2023-02-23T10:37:03;101838.13;;;7.68;100.00
49030;BME280;43337;52.070;4.508;2023-02-23T10:39:30;101856.47;;;7.70;100.00
49030;BME280;43337;52.070;4.508;2023-02-23T10:42:02;101850.38;;;7.68;100.00
49030;BME280;43337;52.070;4.508;2023-02-23T10:44:30;101842.56;;;7.63;100.00
49030;BME280;43337;52.070;4.508;2023-02-23T10:47:09;101833.03;;;7.59;100.00
49030;BME280;43337;52.070;4.508;2023-02-23T10:49:50;101841.72;;;7.63;100.00
49030;BME280;43337;52.070;4.508;2023-02-23T10:52:33;101830.34;;;7.64;100.00
49030;BME280;43337;52.070;4.508;2023-02-23T10:54:59;101845.94;;;7.71;100.00
49030;BME280;43337;52.070;4.508;2023-02-23T10:57:37;101846.78;;;7.76;100.00
49030;BME280;43337;52.070;4.508;2023-02-23T11:02:34;101847.63;;;7.75;100.00
49030;BME280;43337;52.070;4.508;2023-02-23T11:05:01;101838.94;;;7.73;100.00
49030;BME280;43337;52.070;4.508;2023-02-23T11:07:29;101838.84;;;7.79;100.00
49030;BME280;43337;52.070;4.508;2023-02-23T11:10:23;101841.41;;;7.82;100.00
49030;BME280;43337;52.070;4.508;2023-02-23T11:12:48;101859.69;;;7.87;100.00
49030;BME280;43337;52.070;4.508;2023-02-23T11:17:56;101844.00;;;7.86;100.00
49030;BME280;43337;52.070;4.508;2023-02-23T11:20:40;101868.34;;;7.94;100.00
49030;BME280;43337;52.070;4.508;2023-02-23T11:23:09;101862.25;;;7.92;100.00
49030;BME280;43337;52.070;4.508;2023-02-23T11:25:35;101866.53;;;7.97;100.00
49030;BME280;43337;52.070;4.508;2023-02-23T11:28:01;101856.09;;;7.96;100.00
49030;BME280;43337;52.070;4.508;2023-02-23T11:30:32;101856.88;;;7.99;100.00
49030;BME280;43337;52.070;4.508;2023-02-23T11:33:02;101848.19;;;7.97;100.00
49030;BME280;43337;52.070;4.508;2023-02-23T11:35:35;101842.88;;;8.02;100.00
49030;BME280;43337;52.070;4.508;2023-02-23T11:38:21;101840.25;;;8.02;100.00
49030;BME280;43337;52.070;4.508;2023-02-23T11:41:02;101844.50;;;8.09;100.00
49030;BME280;43337;52.070;4.508;2023-02-23T11:43:28;101841.88;;;8.09;100.00
49030;BME280;43337;52.070;4.508;2023-02-23T11:45:57;101846.19;;;8.13;100.00
49030;BME280;43337;52.070;4.508;2023-02-23T11:48:49;101846.16;;;8.16;100.00
49030;BME280;43337;52.070;4.508;2023-02-23T11:51:30;101844.44;;;8.15;100.00
49030;BME280;43337;52.070;4.508;2023-02-23T11:53:57;101839.19;;;8.15;100.00
49030;BME280;43337;52.070;4.508;2023-02-23T11:56:24;101851.38;;;8.16;100.00
49030;BME280;43337;52.070;4.508;2023-02-23T12:01:23;101842.63;;;8.19;100.00
49030;BME280;43337;52.070;4.508;2023-02-23T12:03:58;101840.88;;;8.18;100.00
49030;BME280;43337;52.070;4.508;2023-02-23T12:06:26;101843.41;;;8.24;100.00
49030;BME280;43337;52.070;4.508;2023-02-23T12:08:57;101846.06;;;8.21;100.00
49030;BME280;43337;52.070;4.508;2023-02-23T12:11:29;101846.81;;;8.29;100.00
49030;BME280;43337;52.070;4.508;2023-02-23T12:14:11;101845.84;;;8.33;100.00
49030;BME280;43337;52.070;4.508;2023-02-23T12:16:45;101851.00;;;8.41;100.00
49030;BME280;43337;52.070;4.508;2023-02-23T12:27:45;101846.06;;;8.73;100.00
49030;BME280;43337;52.070;4.508;2023-02-23T12:30:23;101831.25;;;8.69;100.00
49030;BME280;43337;52.070;4.508;2023-02-23T12:35:29;101836.38;;;8.75;100.00
49030;BME280;43337;52.070;4.508;2023-02-23T12:38:01;101837.25;;;8.76;100.00
49030;BME280;43337;52.070;4.508;2023-02-23T12:40:34;101846.88;;;8.77;100.00
49030;BME280;43337;52.070;4.508;2023-02-23T12:43:06;101840.66;;;8.81;100.00
49030;BME280;43337;52.070;4.508;2023-02-23T12:45:53;101824.09;;;8.77;100.00
49030;BME280;43337;52.070;4.508;2023-02-23T12:50:56;101831.94;;;8.80;100.00
49030;BME280;43337;52.070;4.508;2023-02-23T12:53:33;101835.44;;;8.79;100.00
49030;BME280;43337;52.070;4.508;2023-02-23T12:56:27;101840.81;;;8.72;100.00
49030;BME280;43337;52.070;4.508;2023-02-23T13:06:56;101836.72;;;8.59;100.00
49030;BME280;43337;52.070;4.508;2023-02-23T13:09:39;101843.63;;;8.63;100.00
49030;BME280;43337;52.070;4.508;2023-02-23T13:17:30;101846.34;;;8.58;100.00
49030;BME280;43337;52.070;4.508;2023-02-23T13:20:02;101834.19;;;8.52;100.00
49030;BME280;43337;52.070;4.508;2023-02-23T13:22:41;101853.38;;;8.56;100.00
49030;BME280;43337;52.070;4.508;2023-02-23T13:25:26;101830.69;;;8.52;100.00
49030;BME280;43337;52.070;4.508;2023-02-23T13:27:58;101844.81;;;8.46;100.00
49030;BME280;43337;52.070;4.508;2023-02-23T13:30:24;101847.34;;;8.51;100.00
49030;BME280;43337;52.070;4.508;2023-02-23T13:32:50;101846.47;;;8.49;100.00
49030;BME280;43337;52.070;4.508;2023-02-23T13:35:18;101833.38;;;8.49;100.00
49030;BME280;43337;52.070;4.508;2023-02-23T13:38:07;101842.13;;;8.49;100.00
49030;BME280;43337;52.070;4.508;2023-02-23T13:40:50;101844.72;;;8.51;100.00
49030;BME280;43337;52.070;4.508;2023-02-23T13:43:27;101849.06;;;8.53;100.00
49030;BME280;43337;52.070;4.508;2023-02-23T13:46:20;101836.75;;;8.55;100.00
49030;BME280;43337;52.070;4.508;2023-02-23T13:49:03;101834.91;;;8.61;100.00
49030;BME280;43337;52.070;4.508;2023-02-23T13:54:26;101846.13;;;8.70;100.00
49030;BME280;43337;52.070;4.508;2023-02-23T13:56:58;101839.13;;;8.69;100.00
49030;BME280;43337;52.070;4.508;2023-02-23T13:59:28;101843.44;;;8.73;100.00
49030;BME280;43337;52.070;4.508;2023-02-23T14:01:55;101839.06;;;8.72;100.00
49030;BME280;43337;52.070;4.508;2023-02-23T14:04:33;101845.97;;;8.78;100.00
49030;BME280;43337;52.070;4.508;2023-02-23T14:07:13;101826.72;;;8.77;100.00
49030;BME280;43337;52.070;4.508;2023-02-23T14:09:55;101843.25;;;8.83;100.00
49030;BME280;43337;52.070;4.508;2023-02-23T14:12:32;101842.25;;;8.90;100.00
49030;BME280;43337;52.070;4.508;2023-02-23T14:17:59;101843.00;;;8.95;100.00
49030;BME280;43337;52.070;4.508;2023-02-23T14:23:17;101830.84;;;8.91;100.00
49030;BME280;43337;52.070;4.508;2023-02-23T14:25:52;101838.66;;;8.94;100.00
49030;BME280;43337;52.070;4.508;2023-02-23T14:28:35;101838.59;;;8.97;100.00
49030;BME280;43337;52.070;4.508;2023-02-23T14:33:51;101834.22;;;8.97;100.00